Welcome to Northern Hawkes Bay. New Zealand.
PWS Header
      nz Flag



Hit Counter


W3C Valid W3C Valid logo


    Wairoa

Select any of the Stations below to visit their websites.










Historic Data from Weather Underground
Select the location of interest below. Wairoa is the default. Please have patience, this Data is slow to load in.
Northern Hawkes Bay Historical Data
Daily Summary for February 8, 2017 Units:  Metric    English   Both
« Previous Day
Next Day »
Daily Weekly Monthly Yearly Custom
  High: Low: Average:
Temperature: 17.4 °C 14.3 °C 16 °C
Dew Point: 16.9 °C 9.4 °C 14.6 °C
Humidity: 99% 65% 92%
Wind Speed: 29.4km/h 0.0km/h 10.9km/h
Wind Gust: 43.9km/h - -
Wind- - South
Pressure: 1026.0 hPa 1016.5 hPa -
Precipitation: 48.3 mm    
Historical Graphs
 
 
Tabular Data for February 8, 2017
Time Temperature Dew Point Pressure Wind Wind Speed Wind Gust Humidity Rainfall Rate (Hourly) solar
00:03 16.4 °C 16.1 °C 1018.8 hPa WSW 7.2 km/h 17.2 km/h 98% 1.5 mm 0 W/m2
00:08 16.3 °C 16.0 °C 1018.5 hPa WSW 11.1 km/h 15.8 km/h 98% 1.3 mm 0 W/m2
00:13 16.3 °C 16.0 °C 1018.5 hPa WSW 7.2 km/h 15.8 km/h 98% 1.3 mm 0 W/m2
00:18 16.3 °C 16.0 °C 1018.5 hPa WSW 11.1 km/h 15.8 km/h 98% 1.0 mm 0 W/m2
00:23 16.3 °C 16.0 °C 1018.2 hPa WSW 8.7 km/h 18.3 km/h 98% 1.0 mm 0 W/m2
00:28 16.3 °C 16.0 °C 1018.5 hPa SW 8.7 km/h 19.5 km/h 98% 0.5 mm 0 W/m2
00:33 16.3 °C 16.0 °C 1018.5 hPa WSW 12.2 km/h 19.5 km/h 98% 0.5 mm 0 W/m2
00:39 16.2 °C 15.9 °C 1018.5 hPa WSW 7.2 km/h 19.5 km/h 98% 0.5 mm 0 W/m2
00:44 16.2 °C 15.9 °C 1018.5 hPa WSW 7.2 km/h 21.9 km/h 98% 0.5 mm 0 W/m2
00:49 16.2 °C 15.9 °C 1018.5 hPa WSW 6.1 km/h 21.9 km/h 98% 0.5 mm 0 W/m2
00:54 16.1 °C 15.8 °C 1018.2 hPa WSW 7.2 km/h 18.3 km/h 98% 0.5 mm 0 W/m2
00:59 16.1 °C 15.8 °C 1018.2 hPa West 9.7 km/h 18.3 km/h 98% 0.5 mm 0 W/m2
01:04 16.1 °C 15.8 °C 1018.2 hPa West 6.1 km/h 18.3 km/h 98% 0.5 mm 0 W/m2
01:09 16.0 °C 15.7 °C 1018.2 hPa West 6.1 km/h 13.4 km/h 98% 0.5 mm 0 W/m2
01:14 16.0 °C 15.7 °C 1018.5 hPa WSW 6.1 km/h 13.4 km/h 98% 0.3 mm 0 W/m2
01:19 16.0 °C 15.7 °C 1018.2 hPa West 1.1 km/h 12.2 km/h 98% 0.3 mm 0 W/m2
01:24 16.0 °C 15.7 °C 1018.2 hPa West 1.1 km/h 11.1 km/h 98% 0.3 mm 0 W/m2
01:29 16.0 °C 15.7 °C 1018.2 hPa West 3.5 km/h 7.2 km/h 98% 0.3 mm 0 W/m2
01:34 16.0 °C 15.7 °C 1017.8 hPa West 2.6 km/h 7.2 km/h 98% 0.3 mm 0 W/m2
01:39 16.1 °C 15.8 °C 1017.8 hPa WNW 3.5 km/h 7.2 km/h 98% 0.5 mm 0 W/m2
01:44 16.0 °C 15.7 °C 1017.5 hPa NW 1.1 km/h 6.1 km/h 98% 0.5 mm 0 W/m2
01:49 16.1 °C 15.8 °C 1017.8 hPa NNW 1.1 km/h 6.1 km/h 98% 0.5 mm 0 W/m2
01:54 16.1 °C 15.8 °C 1017.5 hPa NNW 2.6 km/h 6.1 km/h 98% 0.5 mm 0 W/m2
01:59 16.1 °C 15.8 °C 1017.5 hPa NNW 3.5 km/h 6.1 km/h 98% 0.5 mm 0 W/m2
02:04 16.1 °C 15.8 °C 1017.5 hPa NNW 2.6 km/h 6.1 km/h 98% 1.0 mm 0 W/m2
02:09 16.1 °C 15.8 °C 1017.2 hPa North 2.6 km/h 6.1 km/h 98% 1.0 mm 0 W/m2
02:14 16.1 °C 15.8 °C 1017.2 hPa North 3.5 km/h 7.2 km/h 98% 1.0 mm 0 W/m2
02:19 16.1 °C 15.8 °C 1016.8 hPa North 5.0 km/h 8.7 km/h 98% 1.3 mm 0 W/m2
02:24 16.1 °C 15.8 °C 1016.8 hPa North 6.1 km/h 8.7 km/h 98% 1.3 mm 0 W/m2
02:29 16.0 °C 15.7 °C 1016.5 hPa NNE 3.5 km/h 11.1 km/h 98% 1.3 mm 0 W/m2
02:34 16.1 °C 15.8 °C 1016.5 hPa NNE 6.1 km/h 11.1 km/h 98% 1.3 mm 0 W/m2
02:39 16.0 °C 15.7 °C 1016.5 hPa NNE 3.5 km/h 7.2 km/h 98% 1.0 mm 0 W/m2
02:55 16.1 °C 15.8 °C 1016.5 hPa North 5.0 km/h 9.7 km/h 98% 0.5 mm 0 W/m2
03:00 16.1 °C 15.8 °C 1016.5 hPa North 7.2 km/h 9.7 km/h 98% 0.3 mm 0 W/m2
03:05 16.1 °C 15.8 °C 1016.5 hPa North 3.5 km/h 9.7 km/h 98% 0.3 mm 0 W/m2
03:25 16.2 °C 15.9 °C 1016.8 hPa North 3.5 km/h 8.7 km/h 98% 0.0 mm 0 W/m2
03:30 16.2 °C 15.9 °C 1016.8 hPa NNW 3.5 km/h 8.7 km/h 98% 0.0 mm 0 W/m2
03:35 16.2 °C 15.9 °C 1016.5 hPa NNW 5.0 km/h 7.2 km/h 98% 0.0 mm 0 W/m2
03:40 16.2 °C 15.9 °C 1016.8 hPa NNW 2.6 km/h 7.2 km/h 98% 0.0 mm 0 W/m2
03:45 16.3 °C 16.0 °C 1016.8 hPa NW 1.1 km/h 6.1 km/h 98% 0.3 mm 0 W/m2
03:50 16.3 °C 16.0 °C 1017.2 hPa Calm   5.0 km/h 98% 0.5 mm 0 W/m2
03:55 16.3 °C 16.0 °C 1017.2 hPa Calm   5.0 km/h 98% 0.5 mm 0 W/m2
04:00 16.3 °C 16.0 °C 1017.2 hPa West 2.6 km/h 3.5 km/h 98% 1.3 mm 0 W/m2
04:05 16.3 °C 16.0 °C 1017.2 hPa Calm   3.5 km/h 98% 1.8 mm 0 W/m2
04:10 16.3 °C 16.0 °C 1017.2 hPa NNW 1.1 km/h 3.5 km/h 98% 2.0 mm 0 W/m2
04:15 16.3 °C 16.0 °C 1016.8 hPa Calm   5.0 km/h 98% 2.3 mm 0 W/m2
04:20 16.3 °C 16.0 °C 1016.8 hPa Calm   5.0 km/h 98% 3.0 mm 0 W/m2
04:25 16.3 °C 16.0 °C 1016.8 hPa Calm   2.6 km/h 98% 3.0 mm 0 W/m2
04:30 16.3 °C 16.0 °C 1017.2 hPa Calm   1.1 km/h 98% 3.6 mm 0 W/m2
04:35 16.2 °C 15.9 °C 1017.2 hPa Calm   1.1 km/h 98% 4.3 mm 0 W/m2
04:40 16.3 °C 16.0 °C 1017.5 hPa West 1.1 km/h 3.5 km/h 98% 4.3 mm 0 W/m2
04:45 16.3 °C 16.0 °C 1017.2 hPa West 3.5 km/h 6.1 km/h 98% 3.8 mm 0 W/m2
04:50 16.4 °C 16.1 °C 1016.8 hPa WSW 1.1 km/h 6.1 km/h 98% 3.6 mm 0 W/m2
04:55 16.5 °C 16.2 °C 1016.8 hPa WSW 5.0 km/h 11.1 km/h 98% 3.6 mm 0 W/m2
05:00 16.5 °C 16.2 °C 1017.2 hPa SW 6.1 km/h 12.2 km/h 98% 3.0 mm 0 W/m2
05:05 16.5 °C 16.2 °C 1016.8 hPa Calm   12.2 km/h 98% 2.8 mm 0 W/m2
05:10 16.6 °C 16.3 °C 1016.8 hPa SW 9.7 km/h 12.2 km/h 98% 2.8 mm 0 W/m2
05:15 16.5 °C 16.2 °C 1016.8 hPa SW 8.7 km/h 18.3 km/h 98% 2.3 mm 0 W/m2
05:20 16.5 °C 16.2 °C 1016.8 hPa SSW 11.1 km/h 20.9 km/h 98% 2.0 mm 0 W/m2
05:25 16.5 °C 16.2 °C 1016.8 hPa SW 8.7 km/h 20.9 km/h 98% 2.0 mm 0 W/m2
05:30 16.4 °C 16.1 °C 1016.8 hPa SW 11.1 km/h 19.5 km/h 98% 1.3 mm 0 W/m2
05:35 16.5 °C 16.2 °C 1017.2 hPa SW 12.2 km/h 19.5 km/h 98% 1.0 mm 0 W/m2
05:40 16.5 °C 16.2 °C 1016.8 hPa SSW 9.7 km/h 17.2 km/h 98% 1.0 mm 0 W/m2
05:56 16.6 °C 16.3 °C 1017.5 hPa SW 8.7 km/h 21.9 km/h 98% 1.0 mm 0 W/m2
06:01 16.6 °C 16.3 °C 1017.5 hPa SW 7.2 km/h 18.3 km/h 98% 1.0 mm 0 W/m2
06:06 16.5 °C 16.2 °C 1017.5 hPa WSW 12.2 km/h 15.8 km/h 98% 0.3 mm 0 W/m2
06:11 16.6 °C 16.3 °C 1017.5 hPa SW 7.2 km/h 18.3 km/h 98% 0.5 mm 0 W/m2
06:15 16.7 °C 16.4 °C 1017.2 hPa SW 12.2 km/h 20.9 km/h 98% 0.5 mm 0 W/m2
06:21 16.7 °C 16.4 °C 1017.2 hPa SW 14.8 km/h 20.9 km/h 98% 0.3 mm 0 W/m2
06:25 16.7 °C 16.4 °C 1017.5 hPa SW 8.7 km/h 20.9 km/h 98% 0.5 mm 0 W/m2
06:30 16.7 °C 16.4 °C 1017.8 hPa WSW 6.1 km/h 18.3 km/h 98% 1.0 mm 0 W/m2
06:35 16.8 °C 16.5 °C 1017.8 hPa West 8.7 km/h 19.5 km/h 98% 1.0 mm 0 W/m2
06:41 16.8 °C 16.5 °C 1017.5 hPa West 9.7 km/h 21.9 km/h 98% 1.5 mm 0 W/m2
06:45 16.9 °C 16.6 °C 1017.8 hPa WSW 12.2 km/h 21.9 km/h 98% 1.8 mm 2 W/m2
06:51 17.1 °C 16.6 °C 1017.8 hPa SW 11.1 km/h 19.5 km/h 97% 2.3 mm 3 W/m2
06:55 17.2 °C 16.7 °C 1017.8 hPa WSW 12.2 km/h 19.5 km/h 97% 2.8 mm 2 W/m2
07:01 17.1 °C 16.6 °C 1017.8 hPa WSW 13.4 km/h 19.5 km/h 97% 3.0 mm 3 W/m2
07:05 17.2 °C 16.7 °C 1017.8 hPa WSW 9.7 km/h 21.9 km/h 97% 3.3 mm 6 W/m2
07:11 17.3 °C 16.8 °C 1018.2 hPa SW 9.7 km/h 21.9 km/h 97% 3.0 mm 4 W/m2
07:15 17.2 °C 16.7 °C 1018.2 hPa South 9.7 km/h 17.2 km/h 97% 3.3 mm 13 W/m2
07:21 17.2 °C 16.7 °C 1018.2 hPa South 14.8 km/h 20.9 km/h 97% 3.6 mm 22 W/m2
07:25 17.2 °C 16.7 °C 1018.2 hPa SSW 7.2 km/h 20.9 km/h 97% 3.3 mm 13 W/m2
07:31 17.2 °C 16.7 °C 1018.2 hPa SW 12.2 km/h 20.9 km/h 97% 3.3 mm 11 W/m2
07:35 17.2 °C 16.7 °C 1018.5 hPa SW 12.2 km/h 20.9 km/h 97% 3.6 mm 21 W/m2
07:41 17.3 °C 16.8 °C 1018.5 hPa SSW 8.7 km/h 20.9 km/h 97% 3.0 mm 15 W/m2
07:45 17.2 °C 16.7 °C 1018.5 hPa SSW 13.4 km/h 18.3 km/h 97% 2.8 mm 12 W/m2
07:51 17.2 °C 16.7 °C 1018.5 hPa SSW 11.1 km/h 18.3 km/h 97% 3.0 mm 14 W/m2
07:55 17.2 °C 16.7 °C 1018.8 hPa SSW 11.1 km/h 20.9 km/h 97% 3.0 mm 21 W/m2
08:00 17.2 °C 16.7 °C 1018.5 hPa SW 13.4 km/h 20.9 km/h 97% 3.0 mm 31 W/m2
08:05 17.1 °C 16.6 °C 1018.5 hPa SW 8.7 km/h 20.9 km/h 97% 3.0 mm 29 W/m2
08:10 17.3 °C 16.8 °C 1018.5 hPa SW 14.8 km/h 19.5 km/h 97% 3.0 mm 21 W/m2
08:16 17.3 °C 16.8 °C 1018.8 hPa SW 12.2 km/h 19.5 km/h 97% 2.8 mm 25 W/m2
08:20 17.3 °C 16.8 °C 1018.8 hPa SW 8.7 km/h 19.5 km/h 97% 2.8 mm 23 W/m2
08:25 17.4 °C 16.9 °C 1018.8 hPa SW 6.1 km/h 18.3 km/h 97% 3.0 mm 21 W/m2
08:30 17.1 °C 16.6 °C 1018.8 hPa South 5.0 km/h 14.8 km/h 97% 2.8 mm 29 W/m2
08:35 17.1 °C 16.6 °C 1019.2 hPa South 6.1 km/h 14.8 km/h 97% 2.8 mm 32 W/m2
08:41 17.1 °C 16.6 °C 1018.8 hPa South 5.0 km/h 12.2 km/h 97% 2.8 mm 28 W/m2
08:45 17.2 °C 16.7 °C 1018.8 hPa South 7.2 km/h 12.2 km/h 97% 2.0 mm 20 W/m2
08:50 17.3 °C 16.8 °C 1019.2 hPa South 9.7 km/h 21.9 km/h 97% 2.0 mm 30 W/m2
08:55 17.2 °C 16.7 °C 1019.2 hPa South 12.2 km/h 21.9 km/h 97% 1.8 mm 43 W/m2
09:00 17.2 °C 16.7 °C 1019.5 hPa South 12.2 km/h 18.3 km/h 97% 2.0 mm 58 W/m2
09:06 17.3 °C 16.8 °C 1019.2 hPa SSW 11.1 km/h 18.3 km/h 97% 2.0 mm 39 W/m2
09:11 17.1 °C 16.6 °C 1019.5 hPa SW 11.1 km/h 17.2 km/h 97% 2.8 mm 45 W/m2
09:15 17.2 °C 16.7 °C 1019.5 hPa SSW 8.7 km/h 17.2 km/h 97% 3.0 mm 43 W/m2
09:20 17.3 °C 16.8 °C 1019.5 hPa SSW 9.7 km/h 15.8 km/h 97% 3.3 mm 57 W/m2
09:25 17.2 °C 16.7 °C 1019.5 hPa South 11.1 km/h 15.8 km/h 97% 3.3 mm 68 W/m2
09:30 17.0 °C 16.6 °C 1019.5 hPa South 8.7 km/h 15.8 km/h 97% 3.8 mm 68 W/m2
09:35 17.1 °C 16.6 °C 1019.5 hPa SSW 9.7 km/h 14.8 km/h 97% 4.3 mm 46 W/m2
09:40 17.1 °C 16.6 °C 1019.5 hPa South 6.1 km/h 14.8 km/h 97% 4.8 mm 72 W/m2
09:46 17.1 °C 16.6 °C 1019.5 hPa South 1.1 km/h 14.8 km/h 97% 5.1 mm 68 W/m2
09:50 17.1 °C 16.6 °C 1019.5 hPa South 8.7 km/h 12.2 km/h 97% 5.3 mm 74 W/m2
09:55 17.0 °C 16.6 °C 1019.5 hPa South 6.1 km/h 13.4 km/h 97% 5.3 mm 77 W/m2
10:00 17.0 °C 16.6 °C 1019.9 hPa SSE 1.1 km/h 18.3 km/h 97% 5.3 mm 53 W/m2
10:05 17.0 °C 16.6 °C 1019.9 hPa SSE 2.6 km/h 18.3 km/h 97% 5.1 mm 52 W/m2
10:10 17.0 °C 16.6 °C 1019.9 hPa South 5.0 km/h 14.8 km/h 97% 4.8 mm 70 W/m2
10:15 17.1 °C 16.6 °C 1019.9 hPa SSE 2.6 km/h 13.4 km/h 97% 4.8 mm 92 W/m2
10:20 17.1 °C 16.6 °C 1019.9 hPa South 5.0 km/h 13.4 km/h 97% 4.6 mm 85 W/m2
10:25 17.0 °C 16.6 °C 1019.9 hPa SSE 7.2 km/h 13.4 km/h 97% 4.8 mm 92 W/m2
10:30 17.0 °C 16.6 °C 1020.2 hPa SSE 9.7 km/h 18.3 km/h 97% 4.6 mm 94 W/m2
10:35 16.8 °C 16.5 °C 1020.2 hPa SSE 9.7 km/h 21.9 km/h 98% 4.6 mm 72 W/m2
10:40 17.0 °C 16.6 °C 1020.5 hPa South 5.0 km/h 21.9 km/h 97% 4.6 mm 103 W/m2
10:45 17.0 °C 16.6 °C 1020.2 hPa South 6.1 km/h 19.5 km/h 97% 4.6 mm 87 W/m2
10:50 17.0 °C 16.6 °C 1020.5 hPa SSE 6.1 km/h 15.8 km/h 97% 4.6 mm 80 W/m2
10:55 17.1 °C 16.6 °C 1020.2 hPa SSE 6.1 km/h 18.3 km/h 97% 4.6 mm 133 W/m2
11:00 17.1 °C 16.6 °C 1020.5 hPa South 9.7 km/h 18.3 km/h 97% 4.8 mm 104 W/m2
11:05 17.0 °C 16.6 °C 1020.5 hPa South 15.8 km/h 25.6 km/h 97% 5.1 mm 82 W/m2
11:10 16.9 °C 16.6 °C 1020.9 hPa South 11.1 km/h 25.6 km/h 98% 5.1 mm 100 W/m2
11:15 17.0 °C 16.6 °C 1020.9 hPa South 13.4 km/h 21.9 km/h 97% 5.6 mm 93 W/m2
11:20 16.9 °C 16.6 °C 1020.9 hPa South 12.2 km/h 21.9 km/h 98% 5.3 mm 146 W/m2
11:25 16.9 °C 16.6 °C 1020.9 hPa SSE 9.7 km/h 28.0 km/h 98% 5.3 mm 94 W/m2
11:30 16.8 °C 16.5 °C 1020.9 hPa SSE 12.2 km/h 28.0 km/h 98% 5.6 mm 125 W/m2
11:35 16.8 °C 16.5 °C 1020.9 hPa South 15.8 km/h 27.0 km/h 98% 5.3 mm 118 W/m2
11:40 16.8 °C 16.5 °C 1020.9 hPa SSE 15.8 km/h 28.0 km/h 98% 5.6 mm 122 W/m2
11:45 16.6 °C 16.3 °C 1020.9 hPa SSE 9.7 km/h 28.0 km/h 98% 6.1 mm 113 W/m2
11:50 16.7 °C 16.4 °C 1020.9 hPa South 12.2 km/h 28.0 km/h 98% 6.3 mm 103 W/m2
11:55 16.7 °C 16.4 °C 1020.9 hPa South 12.2 km/h 24.5 km/h 98% 6.6 mm 112 W/m2
12:00 16.6 °C 16.3 °C 1020.9 hPa South 12.2 km/h 24.5 km/h 98% 6.6 mm 155 W/m2
12:05 16.5 °C 16.2 °C 1020.9 hPa SSE 12.2 km/h 23.3 km/h 98% 6.3 mm 107 W/m2
12:10 16.6 °C 16.3 °C 1021.2 hPa South 13.4 km/h 29.4 km/h 98% 6.9 mm 94 W/m2
12:15 16.4 °C 16.1 °C 1021.2 hPa South 15.8 km/h 29.4 km/h 98% 6.1 mm 123 W/m2
12:20 16.1 °C 15.8 °C 1021.2 hPa South 20.9 km/h 30.6 km/h 98% 6.6 mm 93 W/m2
12:25 15.9 °C 15.8 °C 1021.2 hPa South 11.1 km/h 35.6 km/h 99% 6.6 mm 112 W/m2
12:30 16.0 °C 15.7 °C 1021.2 hPa South 18.3 km/h 36.7 km/h 98% 6.9 mm 108 W/m2
12:35 16.1 °C 15.8 °C 1021.6 hPa South 18.3 km/h 36.7 km/h 98% 6.6 mm 136 W/m2
12:40 15.9 °C 15.8 °C 1021.6 hPa South 17.2 km/h 37.8 km/h 99% 6.3 mm 94 W/m2
12:45 15.9 °C 15.8 °C 1021.6 hPa South 29.4 km/h 37.8 km/h 99% 5.6 mm 109 W/m2
12:50 15.8 °C 15.7 °C 1021.6 hPa South 18.3 km/h 35.6 km/h 99% 5.1 mm 100 W/m2
12:55 15.8 °C 15.7 °C 1021.6 hPa SSE 27.0 km/h 35.6 km/h 99% 4.8 mm 84 W/m2
13:00 15.7 °C 15.6 °C 1021.6 hPa SSE 19.5 km/h 37.8 km/h 99% 4.6 mm 113 W/m2
13:05 15.6 °C 15.4 °C 1021.9 hPa SSE 20.9 km/h 37.8 km/h 99% 4.6 mm 104 W/m2
13:10 15.4 °C 15.3 °C 1021.9 hPa South 11.1 km/h 34.3 km/h 99% 4.3 mm 51 W/m2
13:15 15.6 °C 15.4 °C 1021.9 hPa South 21.9 km/h 34.3 km/h 99% 3.8 mm 89 W/m2
13:20 15.5 °C 15.3 °C 1021.9 hPa South 29.4 km/h 35.6 km/h 99% 3.6 mm 106 W/m2
13:25 15.4 °C 15.3 °C 1022.2 hPa SSW 19.5 km/h 35.6 km/h 99% 3.3 mm 106 W/m2
13:30 15.4 °C 15.3 °C 1021.9 hPa SSW 23.3 km/h 40.4 km/h 99% 2.8 mm 163 W/m2
13:35 15.4 °C 15.3 °C 1022.2 hPa South 19.5 km/h 43.9 km/h 99% 2.8 mm 119 W/m2
13:40 15.3 °C 15.2 °C 1022.2 hPa South 27.0 km/h 43.9 km/h 99% 2.8 mm 119 W/m2
13:45 15.2 °C 15.1 °C 1022.6 hPa South 18.3 km/h 39.3 km/h 99% 2.8 mm 87 W/m2
13:50 14.9 °C 14.8 °C 1022.6 hPa South 18.3 km/h 40.4 km/h 99% 3.3 mm 66 W/m2
13:55 14.7 °C 14.6 °C 1022.9 hPa South 20.9 km/h 41.7 km/h 99% 3.6 mm 79 W/m2
14:00 14.5 °C 14.3 °C 1022.9 hPa South 20.9 km/h 41.7 km/h 99% 3.6 mm 89 W/m2
14:05 14.5 °C 14.3 °C 1022.6 hPa South 17.2 km/h 41.7 km/h 99% 3.6 mm 108 W/m2
14:10 14.7 °C 14.2 °C 1022.9 hPa South 18.3 km/h 37.8 km/h 97% 3.6 mm 114 W/m2
14:15 14.8 °C 14.2 °C 1022.9 hPa South 17.2 km/h 37.8 km/h 96% 3.8 mm 122 W/m2
14:20 14.8 °C 14.2 °C 1023.2 hPa South 19.5 km/h 37.8 km/h 96% 3.6 mm 157 W/m2
14:25 14.8 °C 14.0 °C 1023.2 hPa South 17.2 km/h 37.8 km/h 95% 3.8 mm 167 W/m2
14:30 14.8 °C 14.0 °C 1023.2 hPa South 20.9 km/h 34.3 km/h 95% 3.6 mm 169 W/m2
14:35 14.9 °C 14.1 °C 1023.2 hPa SSE 13.4 km/h 34.3 km/h 95% 3.3 mm 110 W/m2
14:40 15.0 °C 14.2 °C 1023.2 hPa SSE 14.8 km/h 28.0 km/h 95% 3.3 mm 135 W/m2
14:45 15.1 °C 14.5 °C 1023.2 hPa SSE 15.8 km/h 27.0 km/h 96% 3.0 mm 85 W/m2
14:50 15.1 °C 14.5 °C 1023.2 hPa South 14.8 km/h 29.4 km/h 96% 2.8 mm 98 W/m2
14:55 15.1 °C 14.6 °C 1023.2 hPa South 21.9 km/h 31.7 km/h 97% 2.0 mm 153 W/m2
15:00 15.2 °C 14.6 °C 1023.2 hPa South 17.2 km/h 31.7 km/h 96% 1.8 mm 152 W/m2
15:05 15.2 °C 14.4 °C 1023.2 hPa South 12.2 km/h 31.7 km/h 95% 1.5 mm 154 W/m2
15:10 15.3 °C 14.3 °C 1023.2 hPa South 15.8 km/h 35.6 km/h 94% 1.3 mm 132 W/m2
15:15 15.3 °C 14.2 °C 1023.6 hPa South 13.4 km/h 35.6 km/h 93% 1.0 mm 139 W/m2
15:20 15.2 °C 14.2 °C 1023.6 hPa South 25.6 km/h 33.1 km/h 94% 1.3 mm 134 W/m2
15:25 15.0 °C 14.4 °C 1023.2 hPa South 24.5 km/h 40.4 km/h 96% 1.0 mm 174 W/m2
15:30 15.1 °C 14.6 °C 1023.2 hPa South 20.9 km/h 40.4 km/h 97% 1.3 mm 131 W/m2
15:35 14.7 °C 14.6 °C 1023.2 hPa South 19.5 km/h 36.7 km/h 99% 1.3 mm 223 W/m2
15:40 15.0 °C 14.7 °C 1023.6 hPa South 13.4 km/h 36.7 km/h 98% 1.3 mm 115 W/m2
15:45 14.6 °C 14.4 °C 1023.6 hPa South 13.4 km/h 28.0 km/h 99% 1.3 mm 110 W/m2
15:50 14.6 °C 14.4 °C 1023.6 hPa South 15.8 km/h 27.0 km/h 99% 1.0 mm 115 W/m2
15:55 14.7 °C 14.4 °C 1023.2 hPa South 13.4 km/h 27.0 km/h 98% 1.0 mm 125 W/m2
16:00 15.2 °C 14.7 °C 1023.2 hPa South 21.9 km/h 30.6 km/h 97% 1.0 mm 114 W/m2
16:05 14.7 °C 14.4 °C 1023.6 hPa South 24.5 km/h 36.7 km/h 98% 1.0 mm 141 W/m2
16:10 14.3 °C 14.0 °C 1023.6 hPa South 21.9 km/h 36.7 km/h 98% 1.0 mm 71 W/m2
16:15 14.3 °C 14.0 °C 1023.2 hPa South 18.3 km/h 35.6 km/h 98% 1.0 mm 112 W/m2
16:20 14.5 °C 14.3 °C 1023.2 hPa South 19.5 km/h 33.1 km/h 99% 1.0 mm 118 W/m2
16:25 14.3 °C 14.0 °C 1023.6 hPa South 20.9 km/h 33.1 km/h 98% 1.0 mm 70 W/m2
16:30 14.8 °C 14.3 °C 1023.6 hPa South 14.8 km/h 33.1 km/h 97% 0.5 mm 56 W/m2
16:35 14.7 °C 13.9 °C 1023.6 hPa South 14.8 km/h 34.3 km/h 95% 0.5 mm 66 W/m2
16:40 14.8 °C 14.2 °C 1023.6 hPa South 19.5 km/h 34.3 km/h 96% 0.3 mm 87 W/m2
16:45 14.9 °C 14.3 °C 1023.6 hPa South 14.8 km/h 28.0 km/h 96% 0.3 mm 48 W/m2
16:50 15.1 °C 14.2 °C 1023.9 hPa South 12.2 km/h 28.0 km/h 94% 0.3 mm 35 W/m2
16:55 14.9 °C 14.1 °C 1023.6 hPa South 18.3 km/h 28.0 km/h 95% 0.5 mm 60 W/m2
17:00 15.0 °C 13.9 °C 1023.2 hPa SSW 15.8 km/h 29.4 km/h 93% 0.5 mm 76 W/m2
17:05 15.2 °C 14.1 °C 1023.6 hPa South 15.8 km/h 30.6 km/h 93% 0.5 mm 29 W/m2
17:10 15.1 °C 14.2 °C 1023.9 hPa SSE 12.2 km/h 30.6 km/h 94% 1.0 mm 27 W/m2
17:15 14.7 °C 13.9 °C 1023.9 hPa South 12.2 km/h 27.0 km/h 95% 1.5 mm 34 W/m2
17:20 14.7 °C 14.1 °C 1023.6 hPa South 13.4 km/h 27.0 km/h 96% 2.3 mm 24 W/m2
17:25 14.6 °C 14.1 °C 1023.6 hPa SSE 13.4 km/h 24.5 km/h 97% 2.8 mm 40 W/m2
17:30 14.7 °C 14.2 °C 1023.9 hPa South 13.4 km/h 29.4 km/h 97% 3.0 mm 54 W/m2
17:35 14.6 °C 14.1 °C 1023.6 hPa South 20.9 km/h 33.1 km/h 97% 3.0 mm 63 W/m2
17:40 14.6 °C 13.8 °C 1023.6 hPa South 14.8 km/h 33.1 km/h 95% 3.0 mm 62 W/m2
17:45 14.7 °C 13.9 °C 1023.9 hPa South 13.4 km/h 27.0 km/h 95% 3.0 mm 47 W/m2
17:50 14.8 °C 13.8 °C 1023.9 hPa South 8.7 km/h 29.4 km/h 94% 3.3 mm 35 W/m2
17:55 14.6 °C 13.5 °C 1024.3 hPa SSE 11.1 km/h 29.4 km/h 93% 3.0 mm 29 W/m2
18:00 14.5 °C 13.2 °C 1023.6 hPa SSE 8.7 km/h 19.5 km/h 92% 3.0 mm 26 W/m2
18:05 14.6 °C 13.5 °C 1023.6 hPa SSE 18.3 km/h 29.4 km/h 93% 3.0 mm 47 W/m2
18:10 14.9 °C 13.6 °C 1023.9 hPa SE 18.3 km/h 33.1 km/h 92% 2.3 mm 35 W/m2
18:15 15.0 °C 13.1 °C 1023.9 hPa SSE 15.8 km/h 34.3 km/h 88% 1.8 mm 38 W/m2
18:20 15.0 °C 12.8 °C 1023.6 hPa South 15.8 km/h 34.3 km/h 87% 1.0 mm 29 W/m2
18:25 15.2 °C 12.7 °C 1023.2 hPa South 9.7 km/h 30.6 km/h 85% 0.5 mm 34 W/m2
18:30 15.1 °C 12.9 °C 1023.6 hPa South 11.1 km/h 23.3 km/h 87% 0.3 mm 17 W/m2
18:35 15.1 °C 12.9 °C 1023.6 hPa SSE 9.7 km/h 23.3 km/h 87% 0.3 mm 19 W/m2
18:40 15.0 °C 12.5 °C 1023.9 hPa SSE 14.8 km/h 34.3 km/h 85% 0.5 mm 10 W/m2
18:45 14.8 °C 12.3 °C 1023.9 hPa SSE 14.8 km/h 35.6 km/h 85% 0.3 mm 12 W/m2
18:50 15.0 °C 12.5 °C 1023.9 hPa South 9.7 km/h 35.6 km/h 85% 0.3 mm 19 W/m2
18:55 15.3 °C 12.4 °C 1023.9 hPa South 13.4 km/h 24.5 km/h 83% 0.3 mm 13 W/m2
19:00 15.6 °C 12.2 °C 1023.6 hPa South 15.8 km/h 24.5 km/h 80% 0.3 mm 18 W/m2
19:05 15.8 °C 12.0 °C 1023.6 hPa South 17.2 km/h 31.7 km/h 78% 0.3 mm 34 W/m2
19:10 16.0 °C 11.4 °C 1023.9 hPa South 15.8 km/h 31.7 km/h 74% 0.3 mm 24 W/m2
19:15 16.2 °C 11.4 °C 1023.9 hPa South 17.2 km/h 29.4 km/h 73% 0.3 mm 24 W/m2
19:20 16.2 °C 11.4 °C 1023.9 hPa South 12.2 km/h 29.4 km/h 73% 0.3 mm 34 W/m2
19:25 16.3 °C 11.1 °C 1023.9 hPa South 13.4 km/h 31.7 km/h 71% 0.3 mm 23 W/m2
19:30 16.4 °C 11.6 °C 1023.9 hPa South 17.2 km/h 31.7 km/h 73% 0.3 mm 13 W/m2
19:35 16.4 °C 11.1 °C 1024.3 hPa South 14.8 km/h 27.0 km/h 71% 0.3 mm 8 W/m2
19:40 16.4 °C 10.9 °C 1024.3 hPa South 15.8 km/h 28.0 km/h 70% 0.0 mm 5 W/m2
19:45 16.4 °C 11.1 °C 1023.9 hPa South 12.2 km/h 28.0 km/h 71% 0.0 mm 6 W/m2
19:50 16.4 °C 10.9 °C 1023.9 hPa South 15.8 km/h 33.1 km/h 70% 0.0 mm 10 W/m2
19:55 16.4 °C 11.1 °C 1023.9 hPa SSE 14.8 km/h 33.1 km/h 71% 0.0 mm 6 W/m2
20:00 16.4 °C 10.9 °C 1023.9 hPa SSE 11.1 km/h 27.0 km/h 70% 0.0 mm 3 W/m2
20:05 16.4 °C 11.3 °C 1023.9 hPa SSE 9.7 km/h 27.0 km/h 72% 0.0 mm 2 W/m2
20:10 16.4 °C 10.9 °C 1024.3 hPa South 11.1 km/h 28.0 km/h 70% 0.0 mm 1 W/m2
20:15 16.4 °C 11.1 °C 1024.3 hPa South 14.8 km/h 28.0 km/h 71% 0.0 mm 0 W/m2
20:20 16.4 °C 10.7 °C 1024.3 hPa South 12.2 km/h 31.7 km/h 69% 0.0 mm 0 W/m2
20:25 16.4 °C 11.3 °C 1024.3 hPa South 11.1 km/h 31.7 km/h 72% 0.0 mm 0 W/m2
20:30 16.4 °C 11.1 °C 1024.6 hPa SSE 12.2 km/h 24.5 km/h 71% 0.0 mm 0 W/m2
20:35 16.2 °C 11.4 °C 1024.6 hPa SSE 11.1 km/h 25.6 km/h 73% 0.0 mm 0 W/m2
20:36 16.2 °C 11.2 °C 1024.9 hPa SSE 9.7 km/h 25.6 km/h 72% 0.0 mm 0 W/m2
20:41 16.1 °C 11.3 °C 1024.3 hPa SSE 14.8 km/h 31.7 km/h 73% 0.3 mm 0 W/m2
20:46 16.0 °C 11.2 °C 1024.9 hPa SSE 9.7 km/h 31.7 km/h 73% 0.3 mm 0 W/m2
20:51 15.8 °C 10.6 °C 1024.9 hPa SSE 8.7 km/h 25.6 km/h 71% 0.3 mm 0 W/m2
20:56 15.9 °C 10.4 °C 1024.9 hPa SSE 12.2 km/h 29.4 km/h 70% 0.3 mm 0 W/m2
21:01 15.9 °C 10.4 °C 1024.9 hPa SE 8.7 km/h 29.4 km/h 70% 0.3 mm 0 W/m2
21:06 15.8 °C 10.1 °C 1024.9 hPa SE 6.1 km/h 27.0 km/h 69% 0.3 mm 0 W/m2
21:11 15.9 °C 10.9 °C 1024.9 hPa SSE 8.7 km/h 27.0 km/h 72% 0.3 mm 0 W/m2
21:16 15.9 °C 9.6 °C 1025.3 hPa SE 6.1 km/h 25.6 km/h 66% 0.3 mm 0 W/m2
21:21 16.0 °C 9.4 °C 1024.9 hPa SE 8.7 km/h 25.6 km/h 65% 0.3 mm 0 W/m2
21:26 16.0 °C 10.1 °C 1024.9 hPa SSE 9.7 km/h 20.9 km/h 68% 0.3 mm 0 W/m2
21:31 16.0 °C 10.3 °C 1025.3 hPa SSE 8.7 km/h 24.5 km/h 69% 0.3 mm 0 W/m2
21:36 16.1 °C 10.4 °C 1025.6 hPa South 14.8 km/h 24.5 km/h 69% 0.3 mm 0 W/m2
21:41 16.1 °C 10.6 °C 1025.3 hPa South 12.2 km/h 23.3 km/h 70% 0.0 mm 0 W/m2
21:46 16.1 °C 11.1 °C 1024.9 hPa SSE 11.1 km/h 23.3 km/h 72% 0.0 mm 0 W/m2
21:51 16.1 °C 11.1 °C 1025.3 hPa SSE 8.7 km/h 19.5 km/h 72% 0.0 mm 0 W/m2
21:56 15.9 °C 12.1 °C 1025.6 hPa SSE 12.2 km/h 23.3 km/h 78% 0.0 mm 0 W/m2
22:01 15.4 °C 12.3 °C 1025.6 hPa SE 9.7 km/h 23.3 km/h 82% 0.0 mm 0 W/m2
22:06 15.0 °C 12.2 °C 1025.6 hPa SE 9.7 km/h 18.3 km/h 83% 0.0 mm 0 W/m2
22:11 14.8 °C 11.9 °C 1025.6 hPa ESE 6.1 km/h 17.2 km/h 83% 0.0 mm 0 W/m2
22:16 14.9 °C 11.7 °C 1025.3 hPa East 6.1 km/h 18.3 km/h 81% 0.0 mm 0 W/m2
22:21 15.0 °C 11.2 °C 1025.6 hPa East 9.7 km/h 18.3 km/h 78% 0.0 mm 0 W/m2
22:26 15.0 °C 11.2 °C 1025.6 hPa East 1.1 km/h 14.8 km/h 78% 0.0 mm 0 W/m2
22:31 15.1 °C 11.5 °C 1025.6 hPa ESE 5.0 km/h 14.8 km/h 79% 0.0 mm 0 W/m2
22:36 15.3 °C 12.1 °C 1026.0 hPa SE 7.2 km/h 12.2 km/h 81% 0.0 mm 0 W/m2
22:41 15.4 °C 12.3 °C 1026.0 hPa SE 3.5 km/h 13.4 km/h 82% 0.0 mm 0 W/m2
22:46 15.4 °C 12.6 °C 1025.6 hPa SSE 2.6 km/h 13.4 km/h 83% 0.0 mm 0 W/m2
22:51 15.4 °C 11.6 °C 1026.0 hPa SSE 11.1 km/h 18.3 km/h 78% 0.0 mm 0 W/m2
22:56 15.9 °C 10.9 °C 1025.6 hPa South 11.1 km/h 19.5 km/h 72% 0.0 mm 0 W/m2
23:01 15.9 °C 10.7 °C 1025.6 hPa South 9.7 km/h 23.3 km/h 71% 0.0 mm 0 W/m2
23:06 15.7 °C 11.7 °C 1025.6 hPa SSE 9.7 km/h 23.3 km/h 77% 1.5 mm 0 W/m2
23:11 14.7 °C 12.1 °C 1025.3 hPa SSE 6.1 km/h 23.3 km/h 84% 1.5 mm 0 W/m2
23:16 14.7 °C 12.1 °C 1024.9 hPa SE 7.2 km/h 19.5 km/h 84% 1.5 mm 0 W/m2
23:21 15.0 °C 11.6 °C 1024.9 hPa SE 7.2 km/h 19.5 km/h 80% 1.5 mm 0 W/m2
23:26 15.2 °C 11.2 °C 1024.9 hPa East 8.7 km/h 21.9 km/h 77% 1.5 mm 0 W/m2
23:31 15.4 °C 11.2 °C 1024.9 hPa East 9.7 km/h 21.9 km/h 76% 1.5 mm 0 W/m2
23:36 15.6 °C 11.2 °C 1025.3 hPa SSE 9.7 km/h 19.5 km/h 75% 1.5 mm 0 W/m2
23:41 15.7 °C 11.3 °C 1024.9 hPa South 9.7 km/h 19.5 km/h 75% 1.5 mm 0 W/m2
23:58 16.0 °C 10.9 °C 1024.9 hPa SSE 7.2 km/h 20.9 km/h 72% 1.5 mm 0 W/m2
Northern Hawkes Bay. New Zealand Historic Data
Compliments of Weather Underground - 2.25 mb